Milwaukee, Wisconsin
Traffic Map
Current Weather Conditions
Milwaukee, Wisconsin
Overcast
Overcast
10°
Feels Like: 10°
Wind Chill: 10° Ceiling: 2200
Heat Index: 10° Visibility: 10mi
Dew Point: Wind: 14mph
Humidity: 77% Direction: 190° (S)
Pressure: 29.7in Gusts: 0mph
Raw Report DataKMKE 231452Z 19012KT 10SM BKN022 OVC039 10/06 A2970 RMK AO2 SLP062 T01000061 58002
Traffic Incident Summary
Active as of:
Severity:
Category:
InformationThere was an issue retrieving the traffic information for this location. Please try a different location or try again shortly.
Advertisements
Track Severe Weather on mobile